createdAt,value
2018-06-11T00:01:03.867Z,139.92
2018-06-11T00:03:35.108Z,132.87
2018-06-11T00:06:06.544Z,130.12
2018-06-11T00:08:37.613Z,127.55
2018-06-11T00:11:08.699Z,134.87
2018-06-11T00:13:40.008Z,134.93
2018-06-11T00:16:11.520Z,128.47
2018-06-11T00:18:42.682Z,128.50
2018-06-11T00:21:14.065Z,126.47
2018-06-11T00:23:45.328Z,125.35
2018-06-11T00:26:16.858Z,126.35
2018-06-11T00:28:47.915Z,130.75
2018-06-11T00:31:19.199Z,128.00
2018-06-11T00:33:50.361Z,133.40
2018-06-11T00:36:21.574Z,128.40
2018-06-11T00:38:52.570Z,127.47
2018-06-11T00:41:23.821Z,128.70
2018-06-11T00:43:54.999Z,136.45
2018-06-11T00:46:26.267Z,132.12
2018-06-11T00:49:01.249Z,126.45
2018-06-11T00:51:32.885Z,131.50
2018-06-11T00:54:04.093Z,134.07
2018-06-11T00:56:35.277Z,130.95
2018-06-11T00:59:06.468Z,132.03
2018-06-11T01:01:37.741Z,126.20
2018-06-11T01:04:08.861Z,129.07
2018-06-11T01:06:40.236Z,122.50
2018-06-11T01:09:11.549Z,130.15
2018-06-11T01:11:42.965Z,129.95
2018-06-11T01:14:14.240Z,128.97
2018-06-11T01:16:45.869Z,128.47
2018-06-11T01:19:17.055Z,120.08
2018-06-11T01:21:48.184Z,129.05
2018-06-11T01:24:19.271Z,129.97
2018-06-11T01:26:50.648Z,133.00
2018-06-11T01:29:25.166Z,129.85
2018-06-11T01:31:56.516Z,130.82
2018-06-11T01:34:27.956Z,137.95
2018-06-11T01:37:12.303Z,131.22
2018-06-11T01:39:43.280Z,128.97
2018-06-11T01:42:14.527Z,138.07
2018-06-11T01:44:49.947Z,127.55
2018-06-11T01:47:21.395Z,128.57
2018-06-11T01:49:52.461Z,128.35
2018-06-11T01:52:23.623Z,124.58
2018-06-11T01:54:55.675Z,122.00
2018-06-11T01:57:27.012Z,129.45
2018-06-11T01:59:58.259Z,131.20
2018-06-11T02:02:29.695Z,122.65
2018-06-11T02:05:00.952Z,125.40
2018-06-11T02:07:32.149Z,132.00
2018-06-11T02:10:03.336Z,129.55
2018-06-11T02:12:34.588Z,126.10
2018-06-11T02:15:05.813Z,131.20
2018-06-11T02:17:37.603Z,130.35
2018-06-11T02:20:08.843Z,125.12
2018-06-11T02:22:39.896Z,125.95
2018-06-11T02:25:12.273Z,124.33
2018-06-11T02:27:43.588Z,127.67
2018-06-11T02:30:14.645Z,131.63
2018-06-11T02:32:45.692Z,130.00
2018-06-11T02:35:16.500Z,130.20
2018-06-11T02:37:47.332Z,129.55
2018-06-11T02:40:18.392Z,124.55
2018-06-11T02:42:49.387Z,124.02
2018-06-11T02:45:20.672Z,128.72
2018-06-11T02:47:52.043Z,131.27
2018-06-11T02:50:23.312Z,131.95
2018-06-11T02:52:54.535Z,128.05
2018-06-11T02:55:25.596Z,126.05
2018-06-11T02:58:05.000Z,133.60
2018-06-11T03:00:36.234Z,130.15
2018-06-11T03:03:07.769Z,127.32
2018-06-11T03:05:38.820Z,125.85
2018-06-11T03:08:09.906Z,126.18
2018-06-11T03:13:41.792Z,137.60
2018-06-11T03:16:13.103Z,129.32
2018-06-11T03:18:44.965Z,126.87
2018-06-11T03:21:16.164Z,125.95
2018-06-11T03:23:47.585Z,126.75
2018-06-11T03:26:18.853Z,129.12
2018-06-11T03:28:50.298Z,130.47
2018-06-11T03:31:21.428Z,126.55
2018-06-11T03:33:52.405Z,134.37
2018-06-11T03:36:23.256Z,128.40
2018-06-11T03:38:54.545Z,134.20
2018-06-11T03:41:25.650Z,129.32
2018-06-11T03:43:56.769Z,133.45
2018-06-11T03:46:38.788Z,128.10
2018-06-11T03:49:10.251Z,130.15
2018-06-11T03:51:41.415Z,129.60
2018-06-11T03:54:12.519Z,130.32
2018-06-11T03:56:43.736Z,128.87
2018-06-11T03:59:15.029Z,131.15
2018-06-11T04:01:46.168Z,127.90
2018-06-11T04:04:17.619Z,130.18
2018-06-11T04:06:48.708Z,130.07
2018-06-11T04:09:19.994Z,129.85
2018-06-11T04:11:51.092Z,131.97
2018-06-11T04:17:19.468Z,131.65
2018-06-11T04:19:51.516Z,131.03
2018-06-11T04:22:22.627Z,133.57
2018-06-11T04:24:53.887Z,127.05
2018-06-11T04:27:25.070Z,133.78
2018-06-11T04:29:56.272Z,133.97
2018-06-11T04:32:27.392Z,134.72
2018-06-11T04:34:58.412Z,130.20
2018-06-11T04:37:29.691Z,133.30
2018-06-11T04:40:01.106Z,131.18
2018-06-11T04:42:32.253Z,128.32
2018-06-11T04:45:03.716Z,128.40
2018-06-11T04:47:34.964Z,128.55
2018-06-11T04:50:06.104Z,129.85
2018-06-11T04:52:37.670Z,131.07
2018-06-11T04:55:08.587Z,129.42
2018-06-11T04:57:39.630Z,127.67
2018-06-11T05:00:11.045Z,133.75
2018-06-11T05:02:42.227Z,136.18
2018-06-11T05:05:13.553Z,135.72
2018-06-11T05:07:44.753Z,135.12
2018-06-11T05:10:15.597Z,135.45
2018-06-11T05:12:46.404Z,138.52
2018-06-11T05:15:17.284Z,132.80
2018-06-11T05:17:48.333Z,132.25
2018-06-11T05:20:19.437Z,135.97
2018-06-11T05:23:10.197Z,134.70
2018-06-11T05:25:41.496Z,137.43
2018-06-11T05:28:12.351Z,132.03
2018-06-11T05:30:43.483Z,135.75
2018-06-11T05:33:14.304Z,135.35
2018-06-11T05:35:45.655Z,140.97
2018-06-11T05:38:16.512Z,142.85
2018-06-11T05:40:47.381Z,138.92
2018-06-11T05:43:25.355Z,147.20
2018-06-11T05:45:56.551Z,141.57
2018-06-11T05:48:27.688Z,141.55
2018-06-11T05:50:58.927Z,144.17
2018-06-11T05:53:30.195Z,142.75
2018-06-11T05:56:01.262Z,144.55
2018-06-11T05:58:32.108Z,144.75
2018-06-11T06:01:03.292Z,151.40
2018-06-11T06:03:34.479Z,145.15
2018-06-11T06:06:05.637Z,151.30
2018-06-11T06:08:36.492Z,149.82
2018-06-11T06:11:07.664Z,144.35
2018-06-11T06:13:38.847Z,154.03
2018-06-11T06:16:09.967Z,153.72
2018-06-11T06:18:40.891Z,155.50
2018-06-11T06:21:11.936Z,154.97
2018-06-11T06:23:42.897Z,155.48
2018-06-11T06:26:14.053Z,154.78
2018-06-11T06:28:44.908Z,154.63
2018-06-11T06:31:20.780Z,151.12
2018-06-11T06:33:54.243Z,154.75
2018-06-11T06:36:25.934Z,158.00
2018-06-11T06:39:02.268Z,152.50
2018-06-11T06:41:33.628Z,167.28
2018-06-11T06:44:04.863Z,162.50
2018-06-11T06:46:35.990Z,157.10
2018-06-11T06:49:07.222Z,159.03
2018-06-11T06:51:38.561Z,153.02
2018-06-11T06:54:14.009Z,156.35
2018-06-11T06:56:45.173Z,157.80
2018-06-11T06:59:16.008Z,158.78
2018-06-11T07:01:47.143Z,155.37
2018-06-11T07:04:17.969Z,155.07
2018-06-11T07:06:49.426Z,155.97
2018-06-11T07:09:21.983Z,150.78
2018-06-11T07:11:53.061Z,156.90
2018-06-11T07:14:24.239Z,168.07
2018-06-11T07:16:55.272Z,160.15
2018-06-11T07:19:26.487Z,156.07
2018-06-11T07:22:00.336Z,162.85
2018-06-11T07:24:34.893Z,156.35
2018-06-11T07:27:10.339Z,162.72
2018-06-11T07:29:43.784Z,157.95
2018-06-11T07:32:15.467Z,166.60
2018-06-11T07:34:46.454Z,164.10
2018-06-11T07:37:17.873Z,164.72
2018-06-11T07:39:48.968Z,173.50
2018-06-11T07:42:20.349Z,168.10
2018-06-11T07:44:51.411Z,167.93
2018-06-11T07:47:23.188Z,151.32
2018-06-11T07:49:54.408Z,157.50
2018-06-11T07:52:25.642Z,163.37
2018-06-11T07:54:56.963Z,162.97
2018-06-11T07:57:28.586Z,158.63
2018-06-11T08:00:01.411Z,161.52
2018-06-11T08:02:33.047Z,156.93
2018-06-11T08:05:05.115Z,165.43
2018-06-11T08:07:36.443Z,164.95
2018-06-11T08:10:07.733Z,162.77
2018-06-11T08:12:39.112Z,163.30
2018-06-11T08:15:10.440Z,154.47
2018-06-11T08:17:41.790Z,154.30
2018-06-11T08:20:13.301Z,159.40
2018-06-11T08:22:44.808Z,158.52
2018-06-11T08:25:15.904Z,156.90
2018-06-11T08:27:47.827Z,163.47
2018-06-11T08:30:19.288Z,152.20
2018-06-11T08:32:50.697Z,154.70
2018-06-11T08:35:21.559Z,155.10
2018-06-11T08:37:52.633Z,156.10
2018-06-11T08:40:23.438Z,159.10
2018-06-11T08:42:54.445Z,155.45
2018-06-11T08:45:25.577Z,153.85
2018-06-11T08:47:56.800Z,161.85
2018-06-11T08:50:27.903Z,159.60
2018-06-11T08:53:00.841Z,163.95
2018-06-11T08:55:33.773Z,166.15
2018-06-11T08:58:05.985Z,160.03
2018-06-11T09:00:41.492Z,164.77
2018-06-11T09:03:12.708Z,155.75
2018-06-11T09:05:43.997Z,169.55
2018-06-11T09:08:15.351Z,159.55
2018-06-11T09:10:46.605Z,156.20
2018-06-11T09:16:14.796Z,162.12
2018-06-11T09:18:46.376Z,157.80
2018-06-11T09:21:17.697Z,159.12
2018-06-11T09:23:49.202Z,166.75
2018-06-11T09:26:22.536Z,171.18
2018-06-11T09:28:53.703Z,152.27
2018-06-11T09:31:24.832Z,159.55
2018-06-11T09:33:56.292Z,150.47
2018-06-11T09:36:27.859Z,166.60
2018-06-11T09:38:59.247Z,166.80
2018-06-11T09:41:32.140Z,153.87
2018-06-11T09:44:03.406Z,164.80
2018-06-11T09:46:34.669Z,166.45
2018-06-11T09:49:06.467Z,154.95
2018-06-11T09:51:37.701Z,158.80
2018-06-11T09:54:09.176Z,157.20
2018-06-11T09:56:45.791Z,162.90
2018-06-11T09:59:16.822Z,160.12
2018-06-11T10:01:47.904Z,158.30
2018-06-11T10:04:19.508Z,152.27
2018-06-11T10:06:50.585Z,172.07
2018-06-11T10:09:21.626Z,157.27
2018-06-11T10:11:53.196Z,155.65
2018-06-11T10:14:24.610Z,163.72
2018-06-11T10:16:55.861Z,158.78
2018-06-11T10:19:27.160Z,165.95
2018-06-11T10:21:58.356Z,163.68
2018-06-11T10:24:29.640Z,153.97
2018-06-11T10:27:00.477Z,157.80
2018-06-11T10:29:31.364Z,156.80
2018-06-11T10:32:02.516Z,156.20
2018-06-11T10:34:33.726Z,150.85
2018-06-11T10:37:22.802Z,160.67
2018-06-11T10:39:54.015Z,150.85
2018-06-11T10:42:25.414Z,165.65
2018-06-11T10:44:56.627Z,151.12
2018-06-11T10:47:27.719Z,158.27
2018-06-11T10:49:59.365Z,156.37
2018-06-11T10:52:30.395Z,163.92
2018-06-11T10:55:01.877Z,149.50
2018-06-11T10:57:33.011Z,170.25
2018-06-11T11:00:04.188Z,151.40
2018-06-11T11:02:35.367Z,172.50
2018-06-11T11:05:41.856Z,242.72
2018-06-11T11:08:13.430Z,174.02
2018-06-11T11:10:45.088Z,150.60
2018-06-11T11:13:20.247Z,161.43
2018-06-11T11:15:51.816Z,145.85
2018-06-11T11:18:23.095Z,146.95
2018-06-11T11:20:55.008Z,141.05
2018-06-11T11:23:26.452Z,149.50
2018-06-11T11:25:57.929Z,149.87
2018-06-11T11:28:29.227Z,154.70
2018-06-11T11:31:00.695Z,149.93
2018-06-11T11:33:32.192Z,153.02
2018-06-11T11:36:03.745Z,140.65
2018-06-11T11:38:35.135Z,146.65
2018-06-11T11:41:07.429Z,152.85
2018-06-11T11:43:38.499Z,157.57
2018-06-11T11:46:09.920Z,148.30
2018-06-11T11:48:40.939Z,146.20
2018-06-11T11:51:11.998Z,140.60
2018-06-11T11:53:43.525Z,147.13
2018-06-11T11:56:14.839Z,142.05
2018-06-11T11:58:46.047Z,150.90
2018-06-11T12:01:17.569Z,144.70
2018-06-11T12:03:48.536Z,149.23
2018-06-11T12:06:19.883Z,146.28
2018-06-11T12:08:50.703Z,149.95
2018-06-11T12:11:21.537Z,147.40
2018-06-11T12:13:52.678Z,145.07
2018-06-11T12:16:25.189Z,145.00
2018-06-11T12:18:56.232Z,135.97
2018-06-11T12:21:27.489Z,141.55
2018-06-11T12:23:58.548Z,141.03
2018-06-11T12:26:29.848Z,141.30
2018-06-11T12:29:01.008Z,143.50
2018-06-11T12:31:33.536Z,148.75
2018-06-11T12:34:04.689Z,148.38
2018-06-11T12:36:36.143Z,143.68
2018-06-11T12:39:09.007Z,142.28
2018-06-11T12:41:44.161Z,143.85
2018-06-11T12:44:15.415Z,144.28
2018-06-11T12:46:47.237Z,142.62
2018-06-11T12:49:22.903Z,138.37
2018-06-11T12:51:54.429Z,139.65
2018-06-11T12:54:25.528Z,140.40
2018-06-11T12:56:56.923Z,140.75
2018-06-11T12:59:28.228Z,138.90
2018-06-11T13:01:59.512Z,143.82
2018-06-11T13:04:30.688Z,147.62
2018-06-11T13:07:03.152Z,149.65
2018-06-11T13:09:34.017Z,143.57
2018-06-11T13:12:05.044Z,140.20
2018-06-11T13:14:35.975Z,146.90
2018-06-11T13:17:07.371Z,150.03
2018-06-11T13:19:38.224Z,143.70
2018-06-11T13:22:09.678Z,152.10
2018-06-11T13:24:41.126Z,142.20
2018-06-11T13:27:12.627Z,149.70
2018-06-11T13:29:43.791Z,153.40
2018-06-11T13:32:14.927Z,150.78
2018-06-11T13:34:46.230Z,148.20
2018-06-11T13:37:17.711Z,142.95
2018-06-11T13:39:48.808Z,149.50
2018-06-11T13:42:20.187Z,146.37
2018-06-11T13:44:52.208Z,141.65
2018-06-11T13:47:23.657Z,148.07
2018-06-11T13:49:54.722Z,146.82
2018-06-11T13:52:25.637Z,142.20
2018-06-11T13:54:56.980Z,148.97
2018-06-11T13:57:28.137Z,150.18
2018-06-11T13:59:58.978Z,134.05
2018-06-11T14:02:30.009Z,141.68
2018-06-11T14:05:01.219Z,138.80
2018-06-11T14:07:33.037Z,143.62
2018-06-11T14:10:04.244Z,150.65
2018-06-11T14:12:35.532Z,140.85
2018-06-11T14:15:06.668Z,146.75
2018-06-11T14:17:37.963Z,143.47
2018-06-11T14:20:09.205Z,145.55
2018-06-11T14:22:44.471Z,147.13
2018-06-11T14:25:16.239Z,140.70
2018-06-11T14:27:47.302Z,145.95
2018-06-11T14:30:33.321Z,143.28
2018-06-11T14:33:04.948Z,148.72
2018-06-11T14:35:38.804Z,147.43
2018-06-11T14:38:10.353Z,140.45
2018-06-11T14:40:41.220Z,183.57
2018-06-11T14:43:12.375Z,148.57
2018-06-11T14:45:43.484Z,148.02
2018-06-11T14:48:14.552Z,145.97
2018-06-11T14:50:45.893Z,148.10
2018-06-11T14:53:17.284Z,141.10
2018-06-11T14:55:48.469Z,147.17
2018-06-11T14:58:24.729Z,148.57
2018-06-11T15:00:55.816Z,145.47
2018-06-11T15:03:26.953Z,144.80
2018-06-11T15:05:59.845Z,140.05
2018-06-11T15:08:31.411Z,151.60
2018-06-11T15:11:02.880Z,151.35
2018-06-11T15:13:35.089Z,151.12
2018-06-11T15:16:06.240Z,143.22
2018-06-11T15:18:37.657Z,135.75
2018-06-11T15:21:08.641Z,146.45
2018-06-11T15:23:39.529Z,138.72
2018-06-11T15:26:12.113Z,145.17
2018-06-11T15:28:43.737Z,139.57
2018-06-11T15:31:15.170Z,132.32
2018-06-11T15:33:46.056Z,138.12
2018-06-11T15:36:16.989Z,144.17
2018-06-11T15:38:48.512Z,141.20
2018-06-11T15:41:19.373Z,136.72
2018-06-11T15:43:50.832Z,132.45
2018-06-11T15:49:16.912Z,143.32
2018-06-11T15:51:49.026Z,140.00
2018-06-11T15:54:20.232Z,142.77
2018-06-11T15:56:51.240Z,139.35
2018-06-11T15:59:22.108Z,144.40
2018-06-11T16:01:52.977Z,141.12
2018-06-11T16:04:24.013Z,143.90
2018-06-11T16:06:54.888Z,139.28
2018-06-11T16:09:26.080Z,137.52
2018-06-11T16:11:57.129Z,145.32
2018-06-11T16:14:28.436Z,151.20
2018-06-11T16:17:00.802Z,140.43
2018-06-11T16:22:09.969Z,155.43
2018-06-11T16:24:42.145Z,142.45
2018-06-11T16:27:13.620Z,156.18
2018-06-11T16:29:44.957Z,145.40
2018-06-11T16:32:16.920Z,154.20
2018-06-11T16:34:48.337Z,146.53
2018-06-11T16:37:19.392Z,144.57
2018-06-11T16:39:50.528Z,147.47
2018-06-11T16:42:21.708Z,151.80
2018-06-11T21:02:14.485Z,155.95
2018-06-11T21:04:45.649Z,164.00
2018-06-11T21:07:16.777Z,154.20
2018-06-11T21:09:47.867Z,157.37
2018-06-11T21:12:18.843Z,153.60
2018-06-11T21:14:49.808Z,155.37
2018-06-11T21:17:20.861Z,170.32
2018-06-11T21:19:51.840Z,169.77
2018-06-11T21:22:22.938Z,169.93
2018-06-11T21:24:53.958Z,168.20
2018-06-11T21:27:25.001Z,159.45
2018-06-11T21:29:55.986Z,155.85
2018-06-11T21:32:27.021Z,170.95
2018-06-11T21:34:57.962Z,170.10
2018-06-11T21:37:29.065Z,169.02
2018-06-11T21:40:02.298Z,161.07
2018-06-11T21:42:33.306Z,174.50
2018-06-11T21:45:04.584Z,175.70
2018-06-11T21:47:35.591Z,162.50
2018-06-11T21:50:08.306Z,165.95
2018-06-11T21:52:39.311Z,161.18
2018-06-11T21:55:10.354Z,154.70
2018-06-11T21:57:41.453Z,152.47
2018-06-11T22:00:13.141Z,148.95
2018-06-11T22:02:44.629Z,146.87
2018-06-11T22:05:15.741Z,153.42
2018-06-11T22:07:50.769Z,149.42
2018-06-11T22:10:24.489Z,144.47
2018-06-11T22:13:01.170Z,143.52
2018-06-11T22:15:36.853Z,147.13
2018-06-11T22:18:10.850Z,147.98
2018-06-11T22:20:44.411Z,141.95
2018-06-11T22:23:19.919Z,133.12
2018-06-11T22:25:54.256Z,139.65
2018-06-11T22:28:25.925Z,134.43
2018-06-11T22:31:00.610Z,130.18
2018-06-11T22:33:35.602Z,132.75
2018-06-11T22:36:06.858Z,134.45
2018-06-11T22:38:37.968Z,130.05
2018-06-11T22:41:09.071Z,125.22
2018-06-11T22:43:40.075Z,125.02
2018-06-11T22:46:11.227Z,124.95
2018-06-11T22:48:42.262Z,122.25
2018-06-11T22:51:13.581Z,127.78
2018-06-11T22:53:44.893Z,131.72
2018-06-11T22:56:15.961Z,128.07
2018-06-11T22:58:46.937Z,125.30
2018-06-11T23:01:17.838Z,131.97
2018-06-11T23:03:49.035Z,125.67
2018-06-11T23:06:19.948Z,130.97
2018-06-11T23:08:51.022Z,125.15
2018-06-11T23:11:22.093Z,123.67
2018-06-11T23:13:53.174Z,121.60
2018-06-11T23:16:24.219Z,122.60
2018-06-11T23:18:55.290Z,125.85
2018-06-11T23:21:26.280Z,128.50
2018-06-11T23:23:57.414Z,127.07
2018-06-11T23:26:28.789Z,124.65
2018-06-11T23:28:59.863Z,126.25
2018-06-11T23:31:30.800Z,128.47
2018-06-11T23:34:01.806Z,122.35
2018-06-11T23:36:32.801Z,127.47
2018-06-11T23:39:05.161Z,124.65
2018-06-11T23:41:36.140Z,123.47
2018-06-11T23:44:07.214Z,124.62
2018-06-11T23:46:38.341Z,128.75
2018-06-11T23:49:09.417Z,124.30
2018-06-11T23:51:40.402Z,128.18
2018-06-11T23:54:11.388Z,124.22
2018-06-11T23:56:42.415Z,124.15
2018-06-11T23:59:13.405Z,125.82
